sensor_id;sensor_type;location;lat;lon;timestamp;P1;durP1;ratioP1;P2;durP2;ratioP2
40198;SDS011;25906;43.536;26.068;2023-03-16T00:01:14;18.27;;;9.63;;
40198;SDS011;25906;43.536;26.068;2023-03-16T00:04:00;16.38;;;8.88;;
40198;SDS011;25906;43.536;26.068;2023-03-16T00:06:46;15.00;;;9.55;;
40198;SDS011;25906;43.536;26.068;2023-03-16T00:09:31;16.13;;;9.57;;
40198;SDS011;25906;43.536;26.068;2023-03-16T00:12:17;18.30;;;9.45;;
40198;SDS011;25906;43.536;26.068;2023-03-16T00:15:03;19.77;;;9.68;;
40198;SDS011;25906;43.536;26.068;2023-03-16T00:17:49;20.67;;;9.80;;
40198;SDS011;25906;43.536;26.068;2023-03-16T00:20:34;16.63;;;10.23;;
40198;SDS011;25906;43.536;26.068;2023-03-16T00:23:20;15.27;;;9.55;;
40198;SDS011;25906;43.536;26.068;2023-03-16T00:26:11;19.10;;;9.85;;
40198;SDS011;25906;43.536;26.068;2023-03-16T00:31:42;21.13;;;9.57;;
40198;SDS011;25906;43.536;26.068;2023-03-16T00:34:30;22.77;;;9.65;;
40198;SDS011;25906;43.536;26.068;2023-03-16T00:37:19;18.13;;;9.88;;
40198;SDS011;25906;43.536;26.068;2023-03-16T00:40:07;20.30;;;10.48;;
40198;SDS011;25906;43.536;26.068;2023-03-16T00:42:53;17.80;;;9.77;;
40198;SDS011;25906;43.536;26.068;2023-03-16T00:45:39;19.52;;;10.07;;
40198;SDS011;25906;43.536;26.068;2023-03-16T00:48:28;17.00;;;10.23;;
40198;SDS011;25906;43.536;26.068;2023-03-16T00:51:14;18.00;;;10.23;;
40198;SDS011;25906;43.536;26.068;2023-03-16T00:54:01;20.65;;;10.15;;
40198;SDS011;25906;43.536;26.068;2023-03-16T00:56:48;20.55;;;9.27;;
40198;SDS011;25906;43.536;26.068;2023-03-16T00:59:33;21.30;;;9.73;;
40198;SDS011;25906;43.536;26.068;2023-03-16T01:02:21;18.40;;;9.88;;
40198;SDS011;25906;43.536;26.068;2023-03-16T01:05:08;22.92;;;9.73;;
40198;SDS011;25906;43.536;26.068;2023-03-16T01:07:54;22.42;;;10.85;;
40198;SDS011;25906;43.536;26.068;2023-03-16T01:10:39;17.77;;;10.50;;
40198;SDS011;25906;43.536;26.068;2023-03-16T01:13:25;22.85;;;11.18;;
40198;SDS011;25906;43.536;26.068;2023-03-16T01:16:10;16.98;;;9.52;;
40198;SDS011;25906;43.536;26.068;2023-03-16T01:18:55;14.85;;;9.63;;
40198;SDS011;25906;43.536;26.068;2023-03-16T01:21:41;16.27;;;9.52;;
40198;SDS011;25906;43.536;26.068;2023-03-16T01:24:27;21.02;;;10.15;;
40198;SDS011;25906;43.536;26.068;2023-03-16T01:27:13;18.75;;;10.15;;
40198;SDS011;25906;43.536;26.068;2023-03-16T01:29:58;20.25;;;10.43;;
40198;SDS011;25906;43.536;26.068;2023-03-16T01:32:44;18.05;;;9.57;;
40198;SDS011;25906;43.536;26.068;2023-03-16T01:35:29;19.58;;;11.18;;
40198;SDS011;25906;43.536;26.068;2023-03-16T01:38:15;109.22;;;45.03;;
40198;SDS011;25906;43.536;26.068;2023-03-16T01:41:01;107.63;;;42.28;;
40198;SDS011;25906;43.536;26.068;2023-03-16T01:43:47;32.67;;;15.45;;
40198;SDS011;25906;43.536;26.068;2023-03-16T01:46:33;57.60;;;23.35;;
40198;SDS011;25906;43.536;26.068;2023-03-16T01:49:19;77.68;;;31.70;;
40198;SDS011;25906;43.536;26.068;2023-03-16T01:52:09;58.88;;;24.92;;
40198;SDS011;25906;43.536;26.068;2023-03-16T01:55:04;17.77;;;10.00;;
40198;SDS011;25906;43.536;26.068;2023-03-16T01:57:57;19.45;;;9.38;;
40198;SDS011;25906;43.536;26.068;2023-03-16T02:00:42;15.25;;;9.30;;
40198;SDS011;25906;43.536;26.068;2023-03-16T02:03:29;18.75;;;9.55;;
40198;SDS011;25906;43.536;26.068;2023-03-16T02:06:19;19.40;;;9.95;;
40198;SDS011;25906;43.536;26.068;2023-03-16T02:09:07;20.85;;;10.57;;
40198;SDS011;25906;43.536;26.068;2023-03-16T02:14:39;18.35;;;10.23;;
40198;SDS011;25906;43.536;26.068;2023-03-16T02:17:26;19.25;;;10.50;;
40198;SDS011;25906;43.536;26.068;2023-03-16T02:20:16;17.08;;;10.27;;
40198;SDS011;25906;43.536;26.068;2023-03-16T02:23:11;14.98;;;9.13;;
40198;SDS011;25906;43.536;26.068;2023-03-16T02:26:07;21.45;;;11.02;;
40198;SDS011;25906;43.536;26.068;2023-03-16T02:32:13;24.13;;;10.88;;
40198;SDS011;25906;43.536;26.068;2023-03-16T02:35:01;17.65;;;10.25;;
40198;SDS011;25906;43.536;26.068;2023-03-16T02:37:48;18.85;;;10.43;;
40198;SDS011;25906;43.536;26.068;2023-03-16T02:40:33;21.83;;;10.48;;
40198;SDS011;25906;43.536;26.068;2023-03-16T02:43:21;27.45;;;11.38;;
40198;SDS011;25906;43.536;26.068;2023-03-16T02:46:10;20.92;;;11.45;;
40198;SDS011;25906;43.536;26.068;2023-03-16T02:49:00;22.92;;;11.40;;
40198;SDS011;25906;43.536;26.068;2023-03-16T02:51:51;19.33;;;11.00;;
40198;SDS011;25906;43.536;26.068;2023-03-16T02:54:36;22.33;;;11.02;;
40198;SDS011;25906;43.536;26.068;2023-03-16T02:57:22;21.75;;;12.38;;
40198;SDS011;25906;43.536;26.068;2023-03-16T03:00:08;20.98;;;12.18;;
40198;SDS011;25906;43.536;26.068;2023-03-16T03:02:58;24.90;;;12.15;;
40198;SDS011;25906;43.536;26.068;2023-03-16T03:05:43;25.70;;;13.27;;
40198;SDS011;25906;43.536;26.068;2023-03-16T03:08:29;25.33;;;13.43;;
40198;SDS011;25906;43.536;26.068;2023-03-16T03:11:16;23.33;;;12.40;;
40198;SDS011;25906;43.536;26.068;2023-03-16T03:14:05;28.02;;;13.82;;
40198;SDS011;25906;43.536;26.068;2023-03-16T03:16:50;28.08;;;14.13;;
40198;SDS011;25906;43.536;26.068;2023-03-16T03:19:36;26.10;;;13.70;;
40198;SDS011;25906;43.536;26.068;2023-03-16T03:22:22;28.58;;;15.52;;
40198;SDS011;25906;43.536;26.068;2023-03-16T03:25:07;27.17;;;15.20;;
40198;SDS011;25906;43.536;26.068;2023-03-16T03:27:53;29.92;;;14.75;;
40198;SDS011;25906;43.536;26.068;2023-03-16T03:30:38;38.17;;;17.08;;
40198;SDS011;25906;43.536;26.068;2023-03-16T03:33:24;33.67;;;17.25;;
40198;SDS011;25906;43.536;26.068;2023-03-16T03:36:10;32.42;;;16.75;;
40198;SDS011;25906;43.536;26.068;2023-03-16T03:38:55;30.75;;;16.73;;
40198;SDS011;25906;43.536;26.068;2023-03-16T03:41:41;33.05;;;17.45;;
40198;SDS011;25906;43.536;26.068;2023-03-16T03:44:26;31.55;;;16.98;;
40198;SDS011;25906;43.536;26.068;2023-03-16T03:47:12;37.55;;;18.77;;
40198;SDS011;25906;43.536;26.068;2023-03-16T03:49:57;34.78;;;18.60;;
40198;SDS011;25906;43.536;26.068;2023-03-16T03:52:42;37.13;;;18.35;;
40198;SDS011;25906;43.536;26.068;2023-03-16T03:55:28;40.60;;;19.73;;
40198;SDS011;25906;43.536;26.068;2023-03-16T03:58:13;39.45;;;21.52;;
40198;SDS011;25906;43.536;26.068;2023-03-16T04:00:58;41.63;;;21.40;;
40198;SDS011;25906;43.536;26.068;2023-03-16T04:03:44;26.10;;;13.73;;
40198;SDS011;25906;43.536;26.068;2023-03-16T04:06:29;43.90;;;23.70;;
40198;SDS011;25906;43.536;26.068;2023-03-16T04:12:02;49.50;;;22.60;;
40198;SDS011;25906;43.536;26.068;2023-03-16T04:14:49;46.85;;;20.83;;
40198;SDS011;25906;43.536;26.068;2023-03-16T04:17:35;41.45;;;21.45;;
40198;SDS011;25906;43.536;26.068;2023-03-16T04:20:21;44.67;;;23.35;;
40198;SDS011;25906;43.536;26.068;2023-03-16T04:23:07;49.00;;;21.50;;
40198;SDS011;25906;43.536;26.068;2023-03-16T04:25:53;41.60;;;21.33;;
40198;SDS011;25906;43.536;26.068;2023-03-16T04:28:38;46.85;;;22.02;;
40198;SDS011;25906;43.536;26.068;2023-03-16T04:31:24;39.40;;;20.60;;
40198;SDS011;25906;43.536;26.068;2023-03-16T04:34:10;41.83;;;20.40;;
40198;SDS011;25906;43.536;26.068;2023-03-16T04:36:56;40.22;;;18.73;;
40198;SDS011;25906;43.536;26.068;2023-03-16T04:39:41;41.67;;;21.40;;
40198;SDS011;25906;43.536;26.068;2023-03-16T04:42:27;39.17;;;20.73;;
40198;SDS011;25906;43.536;26.068;2023-03-16T04:45:13;34.55;;;19.13;;
40198;SDS011;25906;43.536;26.068;2023-03-16T04:48:01;37.50;;;21.75;;
40198;SDS011;25906;43.536;26.068;2023-03-16T04:50:47;39.00;;;22.20;;
40198;SDS011;25906;43.536;26.068;2023-03-16T04:53:33;34.78;;;21.30;;
40198;SDS011;25906;43.536;26.068;2023-03-16T04:56:18;38.13;;;20.58;;
40198;SDS011;25906;43.536;26.068;2023-03-16T04:59:04;35.17;;;21.35;;
40198;SDS011;25906;43.536;26.068;2023-03-16T05:01:50;37.33;;;20.65;;
40198;SDS011;25906;43.536;26.068;2023-03-16T05:04:35;40.15;;;21.75;;
40198;SDS011;25906;43.536;26.068;2023-03-16T05:07:21;42.00;;;21.33;;
40198;SDS011;25906;43.536;26.068;2023-03-16T05:10:07;37.03;;;17.55;;
40198;SDS011;25906;43.536;26.068;2023-03-16T05:12:53;46.55;;;22.92;;
40198;SDS011;25906;43.536;26.068;2023-03-16T05:15:39;41.03;;;22.63;;
40198;SDS011;25906;43.536;26.068;2023-03-16T05:18:24;37.97;;;21.40;;
40198;SDS011;25906;43.536;26.068;2023-03-16T05:21:10;42.53;;;22.02;;
40198;SDS011;25906;43.536;26.068;2023-03-16T05:23:56;42.55;;;21.38;;
40198;SDS011;25906;43.536;26.068;2023-03-16T05:26:42;36.17;;;20.17;;
40198;SDS011;25906;43.536;26.068;2023-03-16T05:29:28;45.42;;;20.17;;
40198;SDS011;25906;43.536;26.068;2023-03-16T05:32:15;36.85;;;19.05;;
40198;SDS011;25906;43.536;26.068;2023-03-16T05:35:01;35.55;;;19.13;;
40198;SDS011;25906;43.536;26.068;2023-03-16T05:37:47;33.88;;;18.73;;
40198;SDS011;25906;43.536;26.068;2023-03-16T05:40:32;43.38;;;20.35;;
40198;SDS011;25906;43.536;26.068;2023-03-16T05:43:18;37.60;;;20.23;;
40198;SDS011;25906;43.536;26.068;2023-03-16T05:46:04;39.20;;;20.38;;
40198;SDS011;25906;43.536;26.068;2023-03-16T05:48:50;41.20;;;21.25;;
40198;SDS011;25906;43.536;26.068;2023-03-16T05:51:35;34.53;;;19.50;;
40198;SDS011;25906;43.536;26.068;2023-03-16T05:54:20;41.90;;;20.75;;
40198;SDS011;25906;43.536;26.068;2023-03-16T05:57:06;43.60;;;21.33;;
40198;SDS011;25906;43.536;26.068;2023-03-16T05:59:52;49.28;;;24.85;;
40198;SDS011;25906;43.536;26.068;2023-03-16T06:02:37;47.03;;;22.98;;
40198;SDS011;25906;43.536;26.068;2023-03-16T06:05:23;47.00;;;23.52;;
40198;SDS011;25906;43.536;26.068;2023-03-16T06:08:09;43.58;;;22.52;;
40198;SDS011;25906;43.536;26.068;2023-03-16T06:10:54;45.47;;;22.73;;
40198;SDS011;25906;43.536;26.068;2023-03-16T06:13:39;48.28;;;23.52;;
40198;SDS011;25906;43.536;26.068;2023-03-16T06:16:25;47.75;;;24.38;;
40198;SDS011;25906;43.536;26.068;2023-03-16T06:21:56;50.50;;;25.55;;
40198;SDS011;25906;43.536;26.068;2023-03-16T06:24:42;52.42;;;26.88;;
40198;SDS011;25906;43.536;26.068;2023-03-16T06:27:27;51.28;;;24.65;;
40198;SDS011;25906;43.536;26.068;2023-03-16T06:32:59;48.15;;;24.98;;
40198;SDS011;25906;43.536;26.068;2023-03-16T06:35:46;50.85;;;25.85;;
40198;SDS011;25906;43.536;26.068;2023-03-16T06:38:32;49.05;;;23.90;;
40198;SDS011;25906;43.536;26.068;2023-03-16T06:41:17;48.15;;;23.20;;
40198;SDS011;25906;43.536;26.068;2023-03-16T06:44:03;47.08;;;23.63;;
40198;SDS011;25906;43.536;26.068;2023-03-16T06:46:50;51.20;;;24.42;;
40198;SDS011;25906;43.536;26.068;2023-03-16T06:49:35;50.00;;;21.90;;
40198;SDS011;25906;43.536;26.068;2023-03-16T06:52:20;46.88;;;20.35;;
40198;SDS011;25906;43.536;26.068;2023-03-16T06:55:06;41.25;;;20.17;;
40198;SDS011;25906;43.536;26.068;2023-03-16T06:57:52;38.25;;;19.48;;
40198;SDS011;25906;43.536;26.068;2023-03-16T07:00:38;33.72;;;17.45;;
40198;SDS011;25906;43.536;26.068;2023-03-16T07:03:23;34.30;;;16.88;;
40198;SDS011;25906;43.536;26.068;2023-03-16T07:06:09;29.25;;;16.25;;
40198;SDS011;25906;43.536;26.068;2023-03-16T07:08:54;30.60;;;16.23;;
40198;SDS011;25906;43.536;26.068;2023-03-16T07:11:39;30.05;;;14.68;;
40198;SDS011;25906;43.536;26.068;2023-03-16T07:14:25;27.65;;;14.32;;
40198;SDS011;25906;43.536;26.068;2023-03-16T07:17:10;28.77;;;13.48;;
40198;SDS011;25906;43.536;26.068;2023-03-16T07:19:56;25.08;;;13.15;;
40198;SDS011;25906;43.536;26.068;2023-03-16T07:22:41;24.77;;;12.57;;
40198;SDS011;25906;43.536;26.068;2023-03-16T07:25:26;24.27;;;11.98;;
40198;SDS011;25906;43.536;26.068;2023-03-16T07:28:12;26.67;;;11.85;;
40198;SDS011;25906;43.536;26.068;2023-03-16T07:30:57;22.17;;;12.02;;
40198;SDS011;25906;43.536;26.068;2023-03-16T07:33:43;22.23;;;11.93;;
40198;SDS011;25906;43.536;26.068;2023-03-16T07:36:28;22.27;;;11.43;;
40198;SDS011;25906;43.536;26.068;2023-03-16T07:39:14;21.27;;;10.98;;
40198;SDS011;25906;43.536;26.068;2023-03-16T07:42:02;20.95;;;11.13;;
40198;SDS011;25906;43.536;26.068;2023-03-16T07:44:48;22.05;;;11.77;;
40198;SDS011;25906;43.536;26.068;2023-03-16T07:47:33;24.55;;;11.90;;
40198;SDS011;25906;43.536;26.068;2023-03-16T07:53:06;18.70;;;10.40;;
40198;SDS011;25906;43.536;26.068;2023-03-16T07:55:51;21.38;;;11.23;;
40198;SDS011;25906;43.536;26.068;2023-03-16T07:58:37;22.73;;;10.93;;
40198;SDS011;25906;43.536;26.068;2023-03-16T08:01:22;25.63;;;10.88;;
40198;SDS011;25906;43.536;26.068;2023-03-16T08:04:08;21.05;;;11.05;;
40198;SDS011;25906;43.536;26.068;2023-03-16T08:06:56;17.45;;;9.98;;
40198;SDS011;25906;43.536;26.068;2023-03-16T08:09:44;19.83;;;10.73;;
40198;SDS011;25906;43.536;26.068;2023-03-16T08:12:30;20.60;;;9.00;;
40198;SDS011;25906;43.536;26.068;2023-03-16T08:15:15;19.42;;;9.90;;
40198;SDS011;25906;43.536;26.068;2023-03-16T08:18:01;17.58;;;9.30;;
40198;SDS011;25906;43.536;26.068;2023-03-16T08:20:47;17.77;;;9.02;;
40198;SDS011;25906;43.536;26.068;2023-03-16T08:23:32;16.88;;;9.18;;
40198;SDS011;25906;43.536;26.068;2023-03-16T08:26:18;17.77;;;9.90;;
40198;SDS011;25906;43.536;26.068;2023-03-16T08:29:04;16.38;;;9.02;;
40198;SDS011;25906;43.536;26.068;2023-03-16T08:31:53;16.23;;;8.60;;
40198;SDS011;25906;43.536;26.068;2023-03-16T08:34:42;17.83;;;9.18;;
40198;SDS011;25906;43.536;26.068;2023-03-16T08:37:27;15.68;;;8.20;;
40198;SDS011;25906;43.536;26.068;2023-03-16T08:40:12;16.92;;;9.30;;
40198;SDS011;25906;43.536;26.068;2023-03-16T08:43:00;15.25;;;8.80;;
40198;SDS011;25906;43.536;26.068;2023-03-16T08:45:45;17.42;;;8.35;;
40198;SDS011;25906;43.536;26.068;2023-03-16T08:48:32;15.73;;;8.70;;
40198;SDS011;25906;43.536;26.068;2023-03-16T08:51:18;15.73;;;8.40;;
40198;SDS011;25906;43.536;26.068;2023-03-16T08:54:04;16.92;;;9.48;;
40198;SDS011;25906;43.536;26.068;2023-03-16T08:56:49;12.15;;;7.03;;
40198;SDS011;25906;43.536;26.068;2023-03-16T08:59:35;113.20;;;45.15;;
40198;SDS011;25906;43.536;26.068;2023-03-16T09:02:21;14.70;;;8.82;;
40198;SDS011;25906;43.536;26.068;2023-03-16T09:05:10;13.68;;;8.32;;
40198;SDS011;25906;43.536;26.068;2023-03-16T09:07:57;12.77;;;6.85;;
40198;SDS011;25906;43.536;26.068;2023-03-16T09:10:44;13.63;;;7.45;;
40198;SDS011;25906;43.536;26.068;2023-03-16T09:16:15;17.15;;;9.00;;
40198;SDS011;25906;43.536;26.068;2023-03-16T09:19:01;11.45;;;5.63;;
40198;SDS011;25906;43.536;26.068;2023-03-16T09:21:46;9.23;;;6.25;;
40198;SDS011;25906;43.536;26.068;2023-03-16T09:24:32;9.60;;;6.05;;
40198;SDS011;25906;43.536;26.068;2023-03-16T09:27:17;8.35;;;5.95;;
40198;SDS011;25906;43.536;26.068;2023-03-16T09:30:03;9.32;;;5.85;;
40198;SDS011;25906;43.536;26.068;2023-03-16T09:32:49;9.57;;;5.70;;
40198;SDS011;25906;43.536;26.068;2023-03-16T09:35:36;9.25;;;5.70;;
40198;SDS011;25906;43.536;26.068;2023-03-16T09:38:22;10.88;;;5.80;;
40198;SDS011;25906;43.536;26.068;2023-03-16T09:47:51;8.87;;;5.93;;
40198;SDS011;25906;43.536;26.068;2023-03-16T09:50:41;9.57;;;5.93;;
40198;SDS011;25906;43.536;26.068;2023-03-16T09:53:28;11.25;;;5.93;;
40198;SDS011;25906;43.536;26.068;2023-03-16T09:56:19;9.65;;;5.95;;
40198;SDS011;25906;43.536;26.068;2023-03-16T09:59:12;71.13;;;27.40;;
40198;SDS011;25906;43.536;26.068;2023-03-16T10:05:15;9.77;;;5.97;;
40198;SDS011;25906;43.536;26.068;2023-03-16T10:08:11;19.05;;;9.52;;
40198;SDS011;25906;43.536;26.068;2023-03-16T10:14:26;13.05;;;7.30;;
40198;SDS011;25906;43.536;26.068;2023-03-16T10:17:25;12.70;;;6.93;;
40198;SDS011;25906;43.536;26.068;2023-03-16T10:20:17;10.50;;;6.72;;
40198;SDS011;25906;43.536;26.068;2023-03-16T10:23:10;15.90;;;9.10;;
40198;SDS011;25906;43.536;26.068;2023-03-16T10:26:02;10.30;;;6.75;;
40198;SDS011;25906;43.536;26.068;2023-03-16T10:28:56;13.45;;;7.10;;
40198;SDS011;25906;43.536;26.068;2023-03-16T10:31:45;12.68;;;6.97;;
40198;SDS011;25906;43.536;26.068;2023-03-16T10:34:31;8.93;;;6.10;;
40198;SDS011;25906;43.536;26.068;2023-03-16T10:37:16;12.48;;;8.00;;
40198;SDS011;25906;43.536;26.068;2023-03-16T10:42:53;8.20;;;5.35;;
40198;SDS011;25906;43.536;26.068;2023-03-16T10:45:41;10.13;;;5.10;;
40198;SDS011;25906;43.536;26.068;2023-03-16T10:48:26;8.40;;;5.60;;
40198;SDS011;25906;43.536;26.068;2023-03-16T10:51:15;6.90;;;4.93;;
40198;SDS011;25906;43.536;26.068;2023-03-16T10:54:22;8.38;;;4.88;;
40198;SDS011;25906;43.536;26.068;2023-03-16T10:57:18;7.63;;;4.93;;
40198;SDS011;25906;43.536;26.068;2023-03-16T11:03:21;7.35;;;4.53;;
40198;SDS011;25906;43.536;26.068;2023-03-16T11:06:18;5.85;;;4.00;;
40198;SDS011;25906;43.536;26.068;2023-03-16T11:09:11;5.85;;;4.00;;
40198;SDS011;25906;43.536;26.068;2023-03-16T11:12:13;5.35;;;3.30;;
40198;SDS011;25906;43.536;26.068;2023-03-16T11:15:17;5.85;;;3.63;;
40198;SDS011;25906;43.536;26.068;2023-03-16T11:18:04;5.70;;;4.03;;
40198;SDS011;25906;43.536;26.068;2023-03-16T11:20:50;7.47;;;4.78;;
40198;SDS011;25906;43.536;26.068;2023-03-16T11:23:38;6.55;;;4.65;;
40198;SDS011;25906;43.536;26.068;2023-03-16T11:26:30;7.00;;;5.00;;
40198;SDS011;25906;43.536;26.068;2023-03-16T11:29:33;6.60;;;4.53;;
40198;SDS011;25906;43.536;26.068;2023-03-16T11:32:25;6.15;;;4.43;;
40198;SDS011;25906;43.536;26.068;2023-03-16T11:35:18;6.32;;;4.38;;
40198;SDS011;25906;43.536;26.068;2023-03-16T11:38:14;7.32;;;4.30;;
40198;SDS011;25906;43.536;26.068;2023-03-16T11:41:03;7.03;;;4.53;;
40198;SDS011;25906;43.536;26.068;2023-03-16T11:43:55;6.07;;;3.95;;
40198;SDS011;25906;43.536;26.068;2023-03-16T11:55:53;6.03;;;3.80;;
40198;SDS011;25906;43.536;26.068;2023-03-16T11:58:56;6.95;;;3.85;;
40198;SDS011;25906;43.536;26.068;2023-03-16T12:08:28;5.80;;;3.60;;
40198;SDS011;25906;43.536;26.068;2023-03-16T12:14:40;3.72;;;2.97;;
40198;SDS011;25906;43.536;26.068;2023-03-16T12:17:34;5.97;;;3.40;;
40198;SDS011;25906;43.536;26.068;2023-03-16T12:20:23;3.20;;;2.63;;
40198;SDS011;25906;43.536;26.068;2023-03-16T12:23:12;5.15;;;3.15;;
40198;SDS011;25906;43.536;26.068;2023-03-16T12:26:06;5.65;;;4.07;;
40198;SDS011;25906;43.536;26.068;2023-03-16T12:28:53;4.28;;;3.15;;
40198;SDS011;25906;43.536;26.068;2023-03-16T12:31:41;4.78;;;3.42;;
40198;SDS011;25906;43.536;26.068;2023-03-16T12:34:35;5.47;;;3.42;;
40198;SDS011;25906;43.536;26.068;2023-03-16T12:37:50;3.75;;;3.08;;
40198;SDS011;25906;43.536;26.068;2023-03-16T12:44:01;6.47;;;3.97;;
40198;SDS011;25906;43.536;26.068;2023-03-16T12:49:45;5.93;;;3.65;;
40198;SDS011;25906;43.536;26.068;2023-03-16T12:52:38;6.78;;;3.75;;
40198;SDS011;25906;43.536;26.068;2023-03-16T12:58:22;5.82;;;3.10;;
40198;SDS011;25906;43.536;26.068;2023-03-16T13:01:09;11.45;;;6.55;;
40198;SDS011;25906;43.536;26.068;2023-03-16T13:04:15;6.10;;;3.85;;
40198;SDS011;25906;43.536;26.068;2023-03-16T13:07:07;4.20;;;3.10;;
40198;SDS011;25906;43.536;26.068;2023-03-16T13:10:10;3.63;;;2.67;;
40198;SDS011;25906;43.536;26.068;2023-03-16T13:16:06;2.83;;;2.15;;
40198;SDS011;25906;43.536;26.068;2023-03-16T13:18:54;4.22;;;2.65;;
40198;SDS011;25906;43.536;26.068;2023-03-16T13:24:27;3.83;;;2.20;;
40198;SDS011;25906;43.536;26.068;2023-03-16T13:27:28;5.72;;;3.10;;
40198;SDS011;25906;43.536;26.068;2023-03-16T13:30:19;5.40;;;3.45;;
40198;SDS011;25906;43.536;26.068;2023-03-16T13:33:22;5.57;;;3.65;;
40198;SDS011;25906;43.536;26.068;2023-03-16T13:36:10;5.75;;;3.58;;
40198;SDS011;25906;43.536;26.068;2023-03-16T13:44:58;5.40;;;3.33;;
40198;SDS011;25906;43.536;26.068;2023-03-16T13:47:57;5.57;;;3.10;;
40198;SDS011;25906;43.536;26.068;2023-03-16T13:50:43;4.22;;;2.53;;
40198;SDS011;25906;43.536;26.068;2023-03-16T13:53:38;3.88;;;2.63;;
40198;SDS011;25906;43.536;26.068;2023-03-16T13:56:25;4.75;;;2.70;;
40198;SDS011;25906;43.536;26.068;2023-03-16T13:59:12;5.03;;;3.08;;
40198;SDS011;25906;43.536;26.068;2023-03-16T14:01:59;3.03;;;2.40;;
40198;SDS011;25906;43.536;26.068;2023-03-16T14:04:45;4.13;;;2.53;;
40198;SDS011;25906;43.536;26.068;2023-03-16T14:07:35;7.60;;;3.40;;
40198;SDS011;25906;43.536;26.068;2023-03-16T14:10:21;3.60;;;2.40;;
40198;SDS011;25906;43.536;26.068;2023-03-16T14:13:23;3.47;;;2.35;;
40198;SDS011;25906;43.536;26.068;2023-03-16T14:16:14;4.22;;;2.47;;
40198;SDS011;25906;43.536;26.068;2023-03-16T14:19:04;4.10;;;2.55;;
40198;SDS011;25906;43.536;26.068;2023-03-16T14:21:52;3.80;;;2.33;;
40198;SDS011;25906;43.536;26.068;2023-03-16T14:24:38;3.05;;;2.05;;
40198;SDS011;25906;43.536;26.068;2023-03-16T14:27:41;12.43;;;4.10;;
40198;SDS011;25906;43.536;26.068;2023-03-16T14:30:28;5.95;;;2.15;;
40198;SDS011;25906;43.536;26.068;2023-03-16T14:33:26;7.03;;;2.78;;
40198;SDS011;25906;43.536;26.068;2023-03-16T14:36:19;3.30;;;2.45;;
40198;SDS011;25906;43.536;26.068;2023-03-16T14:39:25;2.92;;;1.90;;
40198;SDS011;25906;43.536;26.068;2023-03-16T14:45:19;2.87;;;1.83;;
40198;SDS011;25906;43.536;26.068;2023-03-16T14:48:05;2.40;;;1.75;;
40198;SDS011;25906;43.536;26.068;2023-03-16T14:51:01;2.42;;;2.08;;
40198;SDS011;25906;43.536;26.068;2023-03-16T14:53:48;2.30;;;1.70;;
40198;SDS011;25906;43.536;26.068;2023-03-16T14:56:33;3.08;;;1.80;;
40198;SDS011;25906;43.536;26.068;2023-03-16T14:59:19;1.85;;;1.50;;
40198;SDS011;25906;43.536;26.068;2023-03-16T15:02:06;2.30;;;1.70;;
40198;SDS011;25906;43.536;26.068;2023-03-16T15:04:59;3.55;;;2.40;;
40198;SDS011;25906;43.536;26.068;2023-03-16T15:07:46;2.63;;;1.65;;
40198;SDS011;25906;43.536;26.068;2023-03-16T15:10:36;2.13;;;1.38;;
40198;SDS011;25906;43.536;26.068;2023-03-16T15:13:23;1.98;;;1.45;;
40198;SDS011;25906;43.536;26.068;2023-03-16T15:16:20;2.17;;;1.70;;
40198;SDS011;25906;43.536;26.068;2023-03-16T15:19:07;2.63;;;1.88;;
40198;SDS011;25906;43.536;26.068;2023-03-16T15:21:52;2.65;;;1.88;;
40198;SDS011;25906;43.536;26.068;2023-03-16T15:24:38;3.10;;;1.77;;
40198;SDS011;25906;43.536;26.068;2023-03-16T15:27:26;2.35;;;1.70;;
40198;SDS011;25906;43.536;26.068;2023-03-16T15:30:16;2.90;;;2.05;;
40198;SDS011;25906;43.536;26.068;2023-03-16T15:33:08;1.77;;;1.60;;
40198;SDS011;25906;43.536;26.068;2023-03-16T15:35:55;1.58;;;1.40;;
40198;SDS011;25906;43.536;26.068;2023-03-16T15:38:46;1.48;;;1.25;;
40198;SDS011;25906;43.536;26.068;2023-03-16T15:41:33;1.40;;;1.20;;
40198;SDS011;25906;43.536;26.068;2023-03-16T15:44:20;2.25;;;1.50;;
40198;SDS011;25906;43.536;26.068;2023-03-16T15:47:05;2.25;;;1.75;;
40198;SDS011;25906;43.536;26.068;2023-03-16T15:52:37;2.33;;;1.20;;
40198;SDS011;25906;43.536;26.068;2023-03-16T15:55:28;3.55;;;1.73;;
40198;SDS011;25906;43.536;26.068;2023-03-16T15:58:20;4.45;;;2.90;;
40198;SDS011;25906;43.536;26.068;2023-03-16T16:01:11;3.90;;;3.00;;
40198;SDS011;25906;43.536;26.068;2023-03-16T16:04:08;5.07;;;3.58;;
40198;SDS011;25906;43.536;26.068;2023-03-16T16:06:59;5.75;;;3.60;;
40198;SDS011;25906;43.536;26.068;2023-03-16T16:09:46;4.97;;;3.17;;
40198;SDS011;25906;43.536;26.068;2023-03-16T16:12:32;8.65;;;4.70;;
40198;SDS011;25906;43.536;26.068;2023-03-16T16:15:28;15.20;;;10.15;;
40198;SDS011;25906;43.536;26.068;2023-03-16T16:21:16;2.53;;;2.28;;
40198;SDS011;25906;43.536;26.068;2023-03-16T16:24:04;3.50;;;2.50;;
40198;SDS011;25906;43.536;26.068;2023-03-16T16:26:50;3.13;;;2.55;;
40198;SDS011;25906;43.536;26.068;2023-03-16T16:29:36;4.65;;;2.47;;
40198;SDS011;25906;43.536;26.068;2023-03-16T16:32:23;4.55;;;2.63;;
40198;SDS011;25906;43.536;26.068;2023-03-16T16:35:16;5.30;;;2.97;;
40198;SDS011;25906;43.536;26.068;2023-03-16T16:38:03;3.92;;;2.70;;
40198;SDS011;25906;43.536;26.068;2023-03-16T16:40:49;3.38;;;2.30;;
40198;SDS011;25906;43.536;26.068;2023-03-16T16:43:38;3.70;;;2.70;;
40198;SDS011;25906;43.536;26.068;2023-03-16T16:46:26;5.05;;;3.17;;
40198;SDS011;25906;43.536;26.068;2023-03-16T16:49:18;3.90;;;2.80;;
40198;SDS011;25906;43.536;26.068;2023-03-16T16:52:09;3.90;;;2.80;;
40198;SDS011;25906;43.536;26.068;2023-03-16T16:54:59;3.80;;;2.80;;
40198;SDS011;25906;43.536;26.068;2023-03-16T16:57:44;6.20;;;3.60;;
40198;SDS011;25906;43.536;26.068;2023-03-16T17:00:32;5.88;;;3.25;;
40198;SDS011;25906;43.536;26.068;2023-03-16T17:03:22;6.18;;;3.67;;
40198;SDS011;25906;43.536;26.068;2023-03-16T17:06:16;6.22;;;4.30;;
40198;SDS011;25906;43.536;26.068;2023-03-16T17:09:02;5.90;;;4.18;;
40198;SDS011;25906;43.536;26.068;2023-03-16T17:11:47;5.93;;;3.33;;
40198;SDS011;25906;43.536;26.068;2023-03-16T17:14:34;5.43;;;4.05;;
40198;SDS011;25906;43.536;26.068;2023-03-16T17:17:20;4.45;;;3.10;;
40198;SDS011;25906;43.536;26.068;2023-03-16T17:20:13;5.25;;;3.38;;
40198;SDS011;25906;43.536;26.068;2023-03-16T17:22:59;5.72;;;3.22;;
40198;SDS011;25906;43.536;26.068;2023-03-16T17:25:45;4.78;;;3.10;;
40198;SDS011;25906;43.536;26.068;2023-03-16T17:28:34;4.88;;;3.30;;
40198;SDS011;25906;43.536;26.068;2023-03-16T17:31:27;6.97;;;3.25;;
40198;SDS011;25906;43.536;26.068;2023-03-16T17:37:13;7.53;;;3.40;;
40198;SDS011;25906;43.536;26.068;2023-03-16T17:40:02;5.35;;;3.63;;
40198;SDS011;25906;43.536;26.068;2023-03-16T17:42:47;6.20;;;3.25;;
40198;SDS011;25906;43.536;26.068;2023-03-16T17:45:33;7.28;;;4.82;;
40198;SDS011;25906;43.536;26.068;2023-03-16T17:48:20;11.68;;;6.82;;
40198;SDS011;25906;43.536;26.068;2023-03-16T17:51:11;27.77;;;14.43;;
40198;SDS011;25906;43.536;26.068;2023-03-16T17:53:58;15.65;;;8.48;;
40198;SDS011;25906;43.536;26.068;2023-03-16T17:56:44;6.72;;;4.53;;